Time;durP1;ratioP1;P1;durP2;ratioP2;P2;SDS_P1;SDS_P2;PMS_P1;PMS_P2;Temp;Humidity;BMP_temperature;BMP_pressure;BME280_temperature;BME280_humidity;BME280_pressure;Samples;Min_cycle;Max_cycle;Signal;HPM_P1;HPM_P2
2022/09/15 00:02:51;;;;;;;14.28;12.80;;;;;;;12.65;77.02;99775.74;1673169;84;21265;-57
2022/09/15 00:05:58;;;;;;;14.78;12.07;;;;;;;12.60;77.03;99770.02;1668215;85;21269;-59
2022/09/15 00:09:04;;;;;;;13.72;11.55;;;;;;;12.55;76.92;99772.52;1667854;86;21228;-58
2022/09/15 00:12:10;;;;;;;14.10;11.25;;;;;;;12.48;76.79;99771.62;1668195;85;21269;-59
2022/09/15 00:15:17;;;;;;;17.02;13.40;;;;;;;12.41;76.62;99781.73;1667794;86;21225;-58
2022/09/15 00:18:24;;;;;;;16.27;12.63;;;;;;;12.33;76.56;99779.14;1667767;86;21329;-58
2022/09/15 00:21:33;;;;;;;15.68;13.03;;;;;;;12.26;76.51;99780.16;1668441;85;21200;-58
2022/09/15 00:24:40;;;;;;;15.80;13.32;;;;;;;12.23;76.62;99775.91;1665235;85;21237;-58
2022/09/15 00:27:46;;;;;;;15.58;13.85;;;;;;;12.26;76.76;99788.39;1696173;84;21228;-57
2022/09/15 00:30:54;;;;;;;16.62;13.88;;;;;;;12.28;76.92;99780.27;1699648;84;21211;-57
2022/09/15 00:34:03;;;;;;;15.93;13.10;;;;;;;12.33;77.13;99781.89;1695823;84;21392;-57
2022/09/15 00:37:09;;;;;;;15.53;13.72;;;;;;;12.37;77.31;99779.05;1695752;84;21193;-58
2022/09/15 00:40:16;;;;;;;15.83;13.70;;;;;;;12.41;77.44;99783.10;1695889;84;21394;-58
2022/09/15 00:43:23;;;;;;;14.60;13.13;;;;;;;12.42;77.51;99778.44;1695934;84;21219;-57
2022/09/15 00:46:34;;;;;;;15.45;12.70;;;;;;;12.42;77.48;99788.91;1695750;84;21204;-57
2022/09/15 00:49:41;;;;;;;21.30;15.23;;;;;;;12.43;77.50;99780.98;1695739;84;21208;-58
2022/09/15 00:52:58;;;;;;;18.02;16.07;;;;;;;12.46;77.56;99791.58;1695766;84;21303;-58
2022/09/15 00:56:04;;;;;;;17.40;15.55;;;;;;;12.47;77.62;99782.28;1695719;84;21220;-58
2022/09/15 00:59:13;;;;;;;19.52;15.83;;;;;;;12.46;77.69;99781.98;1695746;84;21243;-58
2022/09/15 01:02:23;;;;;;;16.15;14.45;;;;;;;12.50;77.77;99781.02;1695712;84;21259;-57
2022/09/15 01:05:35;;;;;;;18.30;14.58;;;;;;;12.50;77.77;99781.88;1695757;84;21212;-58
2022/09/15 01:08:58;;;;;;;17.57;15.78;;;;;;;12.51;77.71;99783.56;1695862;84;21216;-57
2022/09/15 01:12:06;;;;;;;16.85;15.08;;;;;;;12.55;77.75;99786.75;1695392;84;21204;-57
2022/09/15 01:15:15;;;;;;;17.98;15.78;;;;;;;12.57;77.83;99788.27;1695804;84;21399;-58
2022/09/15 01:19:10;;;;;;;20.82;14.98;;;;;;;12.62;77.95;99780.23;1695711;84;21279;-59
2022/09/15 01:22:47;;;;;;;17.10;14.68;;;;;;;12.66;77.98;99773.30;1696127;84;21204;-58
2022/09/15 01:26:13;;;;;;;17.90;15.95;;;;;;;12.69;77.89;99794.86;1695748;84;21169;-59
2022/09/15 01:30:00;;;;;;;16.67;14.93;;;;;;;12.70;77.97;99808.91;1676826;84;21228;-58
2022/09/15 01:33:29;;;;;;;17.45;15.65;;;;;;;12.73;78.04;99796.69;1695794;84;21252;-59
2022/09/15 01:36:52;;;;;;;17.62;15.63;;;;;;;12.76;78.15;99799.88;1695394;84;21611;-59
2022/09/15 01:40:00;;;;;;;16.77;14.73;;;;;;;12.79;78.20;99785.73;1695930;84;21224;-58
2022/09/15 01:43:07;;;;;;;17.42;14.60;;;;;;;12.82;78.22;99766.09;1681128;84;21255;-58
2022/09/15 01:46:13;;;;;;;15.93;14.15;;;;;;;12.84;78.16;99773.61;1695833;84;21200;-58
2022/09/15 01:49:20;;;;;;;16.37;14.58;;;;;;;12.86;78.13;99770.66;1695801;84;21244;-57
2022/09/15 01:52:28;;;;;;;16.50;14.80;;;;;;;12.88;78.13;99768.02;1695863;84;21513;-58
2022/09/15 01:55:47;;;;;;;18.32;14.93;;;;;;;12.91;78.11;99766.74;1695820;84;21197;-58
2022/09/15 01:58:54;;;;;;;16.48;14.70;;;;;;;12.92;78.08;99758.84;1695843;84;21200;-58
2022/09/15 02:02:13;;;;;;;15.75;13.25;;;;;;;12.93;78.08;99746.78;1682440;84;21224;-59
2022/09/15 02:05:29;;;;;;;17.17;14.10;;;;;;;12.93;78.04;99743.52;1696401;82;21385;-57
2022/09/15 02:08:57;;;;;;;20.02;13.93;;;;;;;12.95;78.01;99729.58;1695787;84;21275;-59
2022/09/15 02:12:31;;;;;;;17.42;15.13;;;;;;;12.95;77.98;99731.81;1681055;84;21263;-57
2022/09/15 02:15:41;;;;;;;;;;;;;;;12.95;78.01;99740.05;1698334;84;21199;-57
2022/09/15 02:18:52;;;;;;;16.27;13.60;;;;;;;12.96;78.11;99738.98;1695976;84;20236;-57
2022/09/15 02:22:09;;;;;;;17.20;14.93;;;;;;;12.96;78.20;99740.36;1695821;84;21224;-59
2022/09/15 02:25:19;;;;;;;14.63;13.03;;;;;;;12.97;78.25;99732.42;1695889;84;21161;-58
2022/09/15 02:28:30;;;;;;;16.73;13.80;;;;;;;12.97;78.28;99728.30;1695813;84;21264;-58
2022/09/15 02:31:35;;;;;;;15.88;14.18;;;;;;;12.99;78.26;99730.33;1695814;84;21236;-58
2022/09/15 02:34:46;;;;;;;16.23;14.45;;;;;;;12.98;78.24;99739.63;1695787;84;21196;-58
2022/09/15 02:37:53;;;;;;;17.90;14.43;;;;;;;12.97;78.19;99744.79;1695762;84;21228;-59
2022/09/15 02:41:00;;;;;;;15.95;14.23;;;;;;;13.01;78.29;99754.36;1695798;84;21204;-59
2022/09/15 02:44:05;;;;;;;16.25;14.38;;;;;;;13.03;78.41;99750.86;1695784;84;21232;-58
2022/09/15 02:47:13;;;;;;;16.27;14.58;;;;;;;13.06;78.48;99747.73;1695804;84;21721;-58
2022/09/15 02:50:19;;;;;;;17.15;14.55;;;;;;;13.10;78.51;99752.25;1695842;84;21196;-58
2022/09/15 02:53:25;;;;;;;19.37;15.15;;;;;;;13.11;78.55;99756.72;1695776;84;21292;-57
2022/09/15 02:56:31;;;;;;;17.00;15.20;;;;;;;13.12;78.64;99756.50;1695778;84;21244;-58
2022/09/15 03:03:00;;;;;;;16.30;14.70;;;;;;;13.17;78.78;99789.72;1695920;84;21235;-57
2022/09/15 03:06:40;;;;;;;18.57;14.40;;;;;;;13.20;78.81;99788.44;1694905;82;21271;-57
2022/09/15 03:09:19;;;;;;;16.80;14.47;;;;;;;13.20;78.72;99775.56;1678515;85;21294;-58
2022/09/15 03:12:25;;;;;;;16.10;14.07;;;;;;;13.20;78.70;99765.94;1691297;84;21252;-57
2022/09/15 03:15:32;;;;;;;20.80;15.03;;;;;;;13.21;78.73;99762.13;1691099;84;21811;-58
2022/09/15 03:18:41;;;;;;;16.87;14.85;;;;;;;13.22;78.75;99769.84;1691282;84;21232;-58
2022/09/15 03:21:48;;;;;;;17.95;15.48;;;;;;;13.25;78.80;99772.18;1691035;84;21172;-58
2022/09/15 03:24:54;;;;;;;19.35;15.72;;;;;;;13.26;78.79;99765.62;1691242;84;21288;-58
2022/09/15 03:28:02;;;;;;;22.73;15.78;;;;;;;13.24;78.74;99762.25;1691308;84;21224;-59
2022/09/15 03:31:09;;;;;;;17.75;14.30;;;;;;;13.20;78.67;99745.84;1678333;84;21196;-60
2022/09/15 03:34:14;;;;;;;16.67;14.60;;;;;;;13.15;78.66;99735.48;1690878;84;21220;-60
2022/09/15 03:37:20;;;;;;;17.00;14.15;;;;;;;13.08;78.57;99727.73;1690499;83;21220;-59
2022/09/15 03:40:27;;;;;;;16.77;14.60;;;;;;;13.02;78.55;99723.08;1691525;84;21283;-59
2022/09/15 03:43:35;;;;;;;19.02;14.13;;;;;;;12.95;78.50;99724.94;1677841;85;21422;-59
2022/09/15 03:46:40;;;;;;;18.27;16.32;;;;;;;12.89;78.46;99726.29;1691329;84;21176;-59
2022/09/15 03:49:47;;;;;;;17.70;14.43;;;;;;;12.83;78.48;99726.58;1691365;84;21255;-60
2022/09/15 03:52:53;;;;;;;17.30;15.50;;;;;;;12.79;78.49;99725.31;1691396;84;21196;-58
2022/09/15 03:56:02;;;;;;;16.95;14.10;;;;;;;12.74;78.48;99714.09;1691336;84;21248;-59
2022/09/15 03:59:08;;;;;;;19.37;16.05;;;;;;;12.72;78.52;99721.67;1690761;84;21224;-58
2022/09/15 04:02:15;;;;;;;20.62;14.98;;;;;;;12.71;78.59;99726.00;1690937;84;21789;-59
2022/09/15 04:05:20;;;;;;;18.32;14.68;;;;;;;12.70;78.66;99733.39;1690840;84;21220;-59
2022/09/15 04:08:27;;;;;;;16.85;15.10;;;;;;;12.69;78.70;99736.34;1692967;83;21228;-59
2022/09/15 04:11:33;;;;;;;21.30;17.77;;;;;;;12.67;78.65;99729.68;1694865;84;21192;-59
2022/09/15 04:14:39;;;;;;;21.95;17.75;;;;;;;12.69;78.67;99728.95;1695013;83;21393;-59
2022/09/15 04:17:44;;;;;;;28.98;20.00;;;;;;;12.75;78.75;99731.42;1652966;86;22076;-59
2022/09/15 04:20:51;;;;;;;24.52;19.45;;;;;;;12.80;78.82;99720.13;1667466;86;21204;-56
2022/09/15 04:23:57;;;;;;;22.37;17.75;;;;;;;12.86;78.87;99731.66;1666977;86;21764;-59
2022/09/15 04:27:03;;;;;;;23.05;18.57;;;;;;;12.90;78.95;99726.08;1667024;86;21223;-59
2022/09/15 04:30:09;;;;;;;21.10;18.82;;;;;;;12.95;79.04;99730.44;1667251;86;21587;-59
2022/09/15 04:33:14;;;;;;;21.55;17.98;;;;;;;13.01;79.11;99724.66;1666933;86;21270;-59
2022/09/15 04:36:30;;;;;;;19.60;17.12;;;;;;;13.04;79.15;99733.34;1666181;86;21219;-58
2022/09/15 04:39:36;;;;;;;19.02;17.02;;;;;;;13.09;79.21;99721.72;1666345;86;21239;-58
2022/09/15 04:42:41;;;;;;;23.27;18.85;;;;;;;13.14;79.29;99719.20;1666455;86;21208;-58
2022/09/15 04:45:46;;;;;;;25.17;18.50;;;;;;;13.21;79.36;99722.78;1678571;83;21751;-58
2022/09/15 04:48:52;;;;;;;20.27;18.07;;;;;;;13.29;79.44;99713.83;1663705;85;21783;-59
2022/09/15 04:51:57;;;;;;;22.13;17.40;;;;;;;13.38;79.51;99702.94;1666323;86;21212;-59
2022/09/15 04:55:09;;;;;;;20.75;17.73;;;;;;;13.49;79.56;99707.80;1666854;86;21322;-58
2022/09/15 04:58:19;;;;;;;21.27;18.00;;;;;;;13.61;79.62;99703.05;1663213;83;21291;-57
2022/09/15 05:01:28;;;;;;;28.67;23.40;;;;;;;13.73;79.72;99700.82;1653535;85;21262;-56
2022/09/15 05:04:36;;;;;;;22.65;17.87;;;;;;;13.85;79.80;99701.03;1685788;83;21787;-52
2022/09/15 05:07:42;;;;;;;19.37;16.82;;;;;;;13.97;79.86;99686.95;1695200;83;21804;-51
2022/09/15 05:10:49;;;;;;;19.50;16.67;;;;;;;14.10;79.92;99687.76;1657974;85;21226;-52
2022/09/15 05:13:57;;;;;;;20.05;17.90;;;;;;;14.25;79.95;99676.53;1688463;83;21287;-51
2022/09/15 05:17:03;;;;;;;20.02;16.42;;;;;;;14.43;80.00;99668.44;1650321;87;21553;-53
2022/09/15 05:20:21;;;;;;;20.08;17.57;;;;;;;14.60;80.02;99679.27;1701287;83;21744;-51
2022/09/15 05:23:29;;;;;;;19.55;16.50;;;;;;;14.74;80.01;99684.50;1674260;85;21241;-51
2022/09/15 05:26:36;;;;;;;20.10;18.00;;;;;;;14.88;80.02;99674.23;1672440;85;21634;-50
2022/09/15 05:29:41;;;;;;;19.95;17.85;;;;;;;14.99;80.01;99670.78;1712485;83;21234;-51
2022/09/15 05:32:50;;;;;;;20.05;17.82;;;;;;;15.08;80.01;99669.44;1709375;83;22011;-49
2022/09/15 05:36:04;;;;;;;19.80;17.67;;;;;;;15.17;80.02;99681.05;1730838;82;21233;-51
2022/09/15 05:39:09;;;;;;;19.95;17.27;;;;;;;15.24;80.07;99682.69;1706908;84;21235;-51
2022/09/15 05:42:16;;;;;;;18.48;16.55;;;;;;;15.33;80.07;99681.37;1707553;84;21238;-51
2022/09/15 05:45:24;;;;;;;21.07;16.67;;;;;;;15.39;80.07;99673.61;1706966;84;21203;-51
2022/09/15 05:48:29;;;;;;;17.65;15.85;;;;;;;15.48;80.11;99674.16;1707548;84;21269;-49
2022/09/15 05:51:35;;;;;;;18.75;16.82;;;;;;;15.55;80.17;99677.20;1707547;84;21211;-50
2022/09/15 05:54:41;;;;;;;17.98;16.17;;;;;;;15.65;80.21;99681.66;1707163;84;21227;-50
2022/09/15 05:57:49;;;;;;;25.97;20.37;;;;;;;15.72;80.25;99686.59;1676636;85;21238;-50
2022/09/15 06:00:57;;;;;;;17.00;14.20;;;;;;;15.82;80.27;99681.42;1690695;84;21275;-52
2022/09/15 06:04:05;;;;;;;15.53;13.60;;;;;;;15.95;80.30;99684.59;1690136;84;21239;-52
2022/09/15 06:07:13;;;;;;;13.45;12.05;;;;;;;16.13;80.37;99703.92;1697421;84;21235;-52
2022/09/15 06:10:19;;;;;;;13.25;11.85;;;;;;;16.29;80.34;99692.28;1700838;83;21258;-53
2022/09/15 06:13:25;;;;;;;14.45;12.95;;;;;;;16.40;80.29;99691.52;1698725;83;21286;-52
2022/09/15 06:16:31;;;;;;;13.80;11.33;;;;;;;16.50;80.23;99670.29;1662806;85;21233;-53
2022/09/15 06:19:37;;;;;;;13.43;11.60;;;;;;;16.59;80.18;99668.36;1696306;83;21322;-52
2022/09/15 06:22:41;;;;;;;11.68;10.50;;;;;;;16.70;80.07;99663.44;1726457;82;21202;-52
2022/09/15 06:25:47;;;;;;;12.90;10.13;;;;;;;16.79;79.91;99671.70;1699772;83;21751;-52
2022/09/15 06:29:10;;;;;;;12.53;10.90;;;;;;;16.82;79.80;99675.41;1715058;82;21282;-53
2022/09/15 06:32:15;;;;;;;11.80;10.63;;;;;;;16.82;79.67;99671.80;1690801;83;21297;-53
2022/09/15 06:35:20;;;;;;;13.80;10.48;;;;;;;16.78;79.60;99679.70;1708430;84;21250;-52
2022/09/15 06:38:25;;;;;;;11.00;9.55;;;;;;;16.72;79.52;99682.02;1711677;84;21756;-52
2022/09/15 06:41:31;;;;;;;11.08;9.98;;;;;;;16.67;79.46;99680.48;1663927;85;21293;-53
2022/09/15 06:44:39;;;;;;;11.80;9.28;;;;;;;16.63;79.42;99693.63;1679999;85;21218;-53
2022/09/15 06:47:48;;;;;;;12.33;10.63;;;;;;;16.56;79.37;99691.46;1697218;83;21231;-52
2022/09/15 06:51:02;;;;;;;13.05;10.88;;;;;;;16.51;79.40;99703.22;1699057;83;21299;-50
2022/09/15 06:54:10;;;;;;;11.08;9.90;;;;;;;16.46;79.37;99708.58;1633983;87;21258;-52
2022/09/15 06:57:17;;;;;;;12.53;11.22;;;;;;;16.41;79.40;99711.19;1657287;86;21177;-52
2022/09/15 07:00:33;;;;;;;13.40;11.08;;;;;;;16.38;79.45;99709.70;1647457;85;21288;-56
2022/09/15 07:03:39;;;;;;;13.10;10.93;;;;;;;16.35;79.50;99709.31;1612944;87;21265;-58
2022/09/15 07:06:46;;;;;;;16.97;11.95;;;;;;;16.32;79.58;99705.11;1668701;86;21207;-58
2022/09/15 07:09:54;;;;;;;13.13;11.65;;;;;;;16.32;79.63;99705.11;1682814;84;21233;-57
2022/09/15 07:13:10;;;;;;;13.98;12.58;;;;;;;16.32;79.65;99696.81;1693437;84;21269;-58
2022/09/15 07:16:33;;;;;;;13.88;11.80;;;;;;;16.32;79.75;99689.05;1692587;83;21224;-59
2022/09/15 07:19:44;;;;;;;15.72;11.18;;;;;;;16.33;79.79;99694.34;1698590;83;21275;-59
2022/09/15 07:22:55;;;;;;;13.60;11.93;;;;;;;16.34;79.81;99701.59;1730740;82;22032;-56
2022/09/15 07:26:02;;;;;;;14.87;13.03;;;;;;;16.35;79.85;99697.73;1726137;82;21215;-57
2022/09/15 07:29:11;;;;;;;13.72;11.10;;;;;;;16.38;79.92;99696.42;1679553;83;21242;-57
2022/09/15 07:32:21;;;;;;;12.05;10.72;;;;;;;16.39;79.97;99698.95;1650681;85;22089;-58
2022/09/15 07:35:29;;;;;;;12.63;10.25;;;;;;;16.40;79.99;99699.28;1662374;85;21240;-59
2022/09/15 07:38:40;;;;;;;12.03;10.78;;;;;;;16.40;80.03;99699.80;1660362;86;21238;-58
2022/09/15 07:41:55;;;;;;;11.75;9.95;;;;;;;16.39;80.05;99693.42;1619849;87;21251;-59
2022/09/15 07:45:01;;;;;;;12.07;10.60;;;;;;;16.39;80.04;99682.94;1637147;87;21252;-56
2022/09/15 07:48:30;;;;;;;11.35;10.10;;;;;;;16.41;80.06;99680.80;1657256;85;21268;-59
2022/09/15 07:52:14;;;;;;;14.78;10.58;;;;;;;16.43;80.10;99682.77;1655830;86;21288;-56
2022/09/15 07:55:20;;;;;;;11.97;10.10;;;;;;;16.45;80.17;99688.95;1660616;86;21276;-56
2022/09/15 07:58:26;;;;;;;10.72;9.55;;;;;;;16.44;80.15;99689.47;1645117;85;21801;-54
2022/09/15 08:01:33;;;;;;;12.07;9.90;;;;;;;16.46;80.21;99686.48;1617673;86;21303;-54
2022/09/15 08:04:41;;;;;;;10.80;9.28;;;;;;;16.49;80.24;99689.34;1632245;88;21264;-53
2022/09/15 08:07:47;;;;;;;14.00;8.80;;;;;;;16.53;80.34;99687.26;1632937;88;21661;-54
2022/09/15 08:11:01;;;;;;;11.40;9.50;;;;;;;16.58;80.37;99687.94;1632957;88;21284;-54
2022/09/15 08:14:14;;;;;;;11.40;10.05;;;;;;;16.61;80.40;99685.56;1657933;85;21208;-54
2022/09/15 08:17:21;;;;;;;9.85;8.50;;;;;;;16.65;80.48;99672.95;1633505;88;21228;-54
2022/09/15 08:20:30;;;;;;;10.70;8.85;;;;;;;16.71;80.52;99671.20;1609673;88;21233;-53
2022/09/15 08:23:36;;;;;;;15.28;9.75;;;;;;;16.78;80.55;99670.03;1638649;84;21279;-54
2022/09/15 08:26:43;;;;;;;10.98;8.98;;;;;;;16.89;80.61;99664.23;1660528;86;21228;-55
2022/09/15 08:29:50;;;;;;;14.38;10.58;;;;;;;17.01;80.68;99663.77;1694318;84;21227;-55
2022/09/15 08:32:56;;;;;;;10.68;8.15;;;;;;;17.10;80.67;99658.20;1705356;84;21247;-54
2022/09/15 08:36:02;;;;;;;10.32;7.55;;;;;;;17.21;80.67;99656.86;1705082;84;21263;-54
2022/09/15 08:39:10;;;;;;;10.43;8.33;;;;;;;17.33;80.65;99659.66;1697835;84;21207;-54
2022/09/15 08:42:25;;;;;;;14.55;10.08;;;;;;;17.41;80.59;99649.64;1685898;83;21872;-54
2022/09/15 08:45:37;;;;;;;12.53;11.10;;;;;;;17.46;80.54;99648.39;1744871;82;21775;-54
2022/09/15 08:48:49;;;;;;;9.88;8.45;;;;;;;17.49;80.45;99646.56;1738521;82;21219;-54
2022/09/15 08:51:58;;;;;;;8.90;7.45;;;;;;;17.50;80.38;99648.23;1713504;82;21834;-54
2022/09/15 08:55:07;;;;;;;9.78;7.83;;;;;;;17.54;80.36;99646.66;1684066;84;21767;-54
2022/09/15 08:58:12;;;;;;;8.23;7.37;;;;;;;17.59;80.35;99641.26;1680283;85;21215;-54
2022/09/15 09:01:59;;;;;;;9.30;7.83;;;;;;;17.64;80.36;99639.47;1677774;85;21262;-56
2022/09/15 09:05:43;;;;;;;14.50;11.70;;;;;;;17.71;80.30;99630.49;1707329;82;21781;-58
2022/09/15 09:09:06;;;;;;;13.83;9.65;;;;;;;17.75;80.27;99628.09;1714130;83;21278;-56
2022/09/15 09:12:52;;;;;;;10.82;8.20;;;;;;;17.79;80.27;99616.86;1716276;82;21206;-56
2022/09/15 09:16:28;;;;;;;9.98;8.25;;;;;;;17.85;80.33;99623.62;1682518;84;21192;-56
2022/09/15 09:20:07;;;;;;;9.10;8.20;;;;;;;17.93;80.34;99623.83;1679193;82;21220;-56
2022/09/15 09:23:22;;;;;;;13.08;8.48;;;;;;;18.00;80.32;99627.30;1665875;86;21812;-57
2022/09/15 09:26:28;;;;;;;9.65;8.10;;;;;;;18.01;80.16;99615.16;1666409;85;21685;-56
2022/09/15 09:29:41;;;;;;;11.25;7.12;;;;;;;18.04;80.12;99611.05;1665388;86;21593;-57
2022/09/15 09:32:53;;;;;;;11.28;8.70;;;;;;;18.09;80.18;99611.16;1665782;86;21240;-56
2022/09/15 09:36:01;;;;;;;10.40;8.23;;;;;;;18.09;80.02;99605.63;1672424;83;21207;-58
2022/09/15 09:39:07;;;;;;;19.75;8.53;;;;;;;18.07;80.02;99603.10;1701228;83;21239;-58
2022/09/15 09:42:17;;;;;;;9.38;8.30;;;;;;;18.05;79.96;99603.88;1679541;84;21212;-55
2022/09/15 09:45:46;;;;;;;11.10;8.08;;;;;;;18.03;80.02;99601.88;1693742;84;21283;-56
2022/09/15 09:49:33;;;;;;;10.72;7.58;;;;;;;18.07;80.14;99609.17;1694759;84;21377;-54
2022/09/15 09:52:43;;;;;;;10.10;8.38;;;;;;;18.13;80.19;99622.89;1706000;83;21223;-55
2022/09/15 09:55:52;;;;;;;10.67;7.23;;;;;;;18.20;80.22;99611.16;1711151;83;21692;-53
2022/09/15 09:58:57;;;;;;;11.97;8.98;;;;;;;18.30;80.30;99615.51;1704783;83;21196;-53
2022/09/15 10:02:23;;;;;;;10.25;7.70;;;;;;;18.40;80.29;99618.54;1707633;83;21155;-53
2022/09/15 10:05:31;;;;;;;9.70;7.87;;;;;;;18.48;80.28;99612.62;1695598;82;21246;-54
2022/09/15 10:08:38;;;;;;;12.37;8.33;;;;;;;18.53;80.24;99611.87;1716167;82;21814;-55
2022/09/15 10:11:58;;;;;;;8.83;7.87;;;;;;;18.55;80.14;99617.45;1726000;82;21257;-55
2022/09/15 10:15:12;;;;;;;8.18;7.37;;;;;;;18.55;80.20;99616.08;1703958;81;21231;-55
2022/09/15 10:18:40;;;;;;;9.90;8.28;;;;;;;18.61;80.20;99610.10;1674898;85;21779;-56
2022/09/15 10:21:47;;;;;;;10.98;7.83;;;;;;;18.66;80.25;99608.26;1657906;85;21728;-56
2022/09/15 10:24:54;;;;;;;12.90;8.43;;;;;;;18.71;80.27;99599.23;1651661;85;21833;-57
2022/09/15 10:28:22;;;;;;;9.28;8.28;;;;;;;18.78;80.33;99595.74;1646180;86;21718;-57
2022/09/15 10:31:42;;;;;;;9.28;8.20;;;;;;;18.83;80.38;99600.86;1681166;85;21701;-57
2022/09/15 10:34:50;;;;;;;9.75;8.30;;;;;;;18.86;80.29;99592.04;1685229;85;21220;-55
2022/09/15 10:38:20;;;;;;;10.23;7.97;;;;;;;18.90;80.32;99585.45;1684078;85;21243;-56
2022/09/15 10:41:39;;;;;;;9.68;7.65;;;;;;;18.89;80.17;99584.61;1684316;85;21251;-55
2022/09/15 10:45:20;;;;;;;12.47;8.68;;;;;;;18.85;80.19;99583.40;1684764;85;21267;-56
2022/09/15 10:48:41;;;;;;;11.28;7.92;;;;;;;18.88;80.36;99580.16;1684260;85;21617;-56
2022/09/15 10:52:24;;;;;;;11.38;7.58;;;;;;;18.90;80.44;99569.63;1682519;85;21593;-57
2022/09/15 10:55:41;;;;;;;9.78;8.30;;;;;;;18.90;80.34;99564.66;1706997;83;21213;-55
2022/09/15 10:59:07;;;;;;;10.58;8.55;;;;;;;18.88;80.38;99556.58;1720038;83;21224;-56
2022/09/15 11:02:27;;;;;;;12.50;8.53;;;;;;;18.92;80.48;99553.59;1696755;83;21431;-56
2022/09/15 11:06:17;;;;;;;11.68;9.28;;;;;;;18.98;80.60;99558.13;1685209;85;21753;-56
2022/09/15 11:09:48;;;;;;;10.72;8.90;;;;;;;19.02;80.67;99560.72;1710977;83;21219;-57
2022/09/15 11:13:13;;;;;;;10.05;7.97;;;;;;;19.03;80.65;99563.78;1688245;84;21211;-56
2022/09/15 11:16:45;;;;;;;11.68;8.90;;;;;;;18.99;80.64;99565.38;1700115;83;21264;-58
2022/09/15 11:20:24;;;;;;;13.85;9.78;;;;;;;18.94;80.66;99551.42;1684297;84;21793;-57
2022/09/15 11:23:55;;;;;;;10.93;8.83;;;;;;;18.87;80.63;99543.78;1650628;86;21826;-55
2022/09/15 11:27:21;;;;;;;13.60;9.13;;;;;;;18.81;80.72;99544.79;1673076;85;21215;-56
2022/09/15 11:30:31;;;;;;;12.28;9.55;;;;;;;18.75;80.76;99536.63;1664116;86;22092;-56
2022/09/15 11:33:51;;;;;;;13.18;10.38;;;;;;;18.66;80.79;99532.58;1675999;85;21740;-55
2022/09/15 11:37:25;;;;;;;11.80;9.75;;;;;;;18.63;80.94;99535.28;1676056;85;21227;-55
2022/09/15 11:40:41;;;;;;;15.38;9.60;;;;;;;18.61;81.06;99529.70;1699370;83;21240;-56
2022/09/15 11:44:09;;;;;;;13.83;10.23;;;;;;;18.58;81.15;99535.75;1711039;83;21208;-55
2022/09/15 11:47:45;;;;;;;11.73;9.85;;;;;;;18.55;81.20;99543.18;1702273;84;21202;-56
2022/09/15 11:50:56;;;;;;;13.95;10.50;;;;;;;18.51;81.26;99537.81;1690105;84;21235;-55
2022/09/15 11:54:23;;;;;;;26.17;17.52;;;;;;;18.46;81.31;99537.71;1697063;81;21244;-56
2022/09/15 11:58:19;;;;;;;13.78;11.00;;;;;;;18.42;81.38;99535.16;1701686;82;21297;-55
2022/09/15 12:02:20;;;;;;;13.75;10.08;;;;;;;18.37;81.44;99533.09;1706912;84;21224;-56
2022/09/15 12:05:42;;;;;;;27.70;18.45;;;;;;;18.36;81.56;99529.19;1683445;84;21288;-55
2022/09/15 12:08:59;;;;;;;;;;;;;;;18.35;81.69;99529.72;1726140;82;21284;-56
2022/09/15 12:12:08;;;;;;;14.23;11.40;;;;;;;18.35;81.80;99523.33;1709143;84;20209;-54
2022/09/15 12:15:29;;;;;;;11.97;10.05;;;;;;;18.33;81.88;99521.37;1711730;82;21373;-55
2022/09/15 12:18:59;;;;;;;13.38;10.58;;;;;;;18.32;81.90;99519.13;1710331;82;21263;-56
2022/09/15 12:22:22;;;;;;;17.55;11.05;;;;;;;18.28;81.84;99512.95;1698319;84;21214;-57
2022/09/15 12:26:18;;;;;;;13.95;11.78;;;;;;;18.27;81.95;99514.87;1659790;85;21323;-55
2022/09/15 12:29:47;;;;;;;15.35;13.18;;;;;;;18.27;82.04;99507.94;1706936;82;21789;-55
2022/09/15 12:32:54;;;;;;;15.13;12.05;;;;;;;18.30;82.18;99499.70;1703125;82;21315;-54
2022/09/15 12:36:00;;;;;;;14.40;11.08;;;;;;;18.32;82.27;99503.04;1741649;81;21189;-55
2022/09/15 12:39:06;;;;;;;14.75;11.85;;;;;;;18.31;82.28;99507.77;1707202;82;21292;-55
2022/09/15 12:42:33;;;;;;;19.15;12.90;;;;;;;18.30;82.25;99501.91;1732521;82;21586;-55
2022/09/15 12:45:42;;;;;;;16.52;12.82;;;;;;;18.27;82.24;99512.09;1736741;82;21220;-56
2022/09/15 12:48:52;;;;;;;14.70;11.85;;;;;;;18.25;82.28;99505.13;1713620;82;21273;-56
2022/09/15 12:51:58;;;;;;;12.78;11.35;;;;;;;18.21;82.31;99496.47;1738229;82;21217;-55
2022/09/15 12:55:08;;;;;;;14.90;12.47;;;;;;;18.20;82.41;99497.56;1716011;83;21524;-55
2022/09/15 12:58:17;;;;;;;16.20;12.88;;;;;;;18.20;82.49;99489.25;1728763;81;21279;-55
2022/09/15 13:01:35;;;;;;;15.05;12.05;;;;;;;18.25;82.64;99482.41;1675488;85;21273;-56
2022/09/15 13:04:58;;;;;;;17.02;13.00;;;;;;;18.32;82.73;99477.56;1693210;83;21237;-57
2022/09/15 13:08:02;;;;;;;14.13;12.00;;;;;;;18.40;82.77;99473.58;1658595;84;21753;-55
2022/09/15 13:11:17;;;;;;;15.18;11.50;;;;;;;18.45;82.82;99474.53;1677630;85;21250;-55
2022/09/15 13:14:38;;;;;;;16.42;12.80;;;;;;;18.49;82.77;99472.11;1660452;85;21232;-55
2022/09/15 13:17:44;;;;;;;13.83;11.12;;;;;;;18.51;82.83;99475.45;1672869;85;21783;-57
2022/09/15 13:21:01;;;;;;;12.85;10.30;;;;;;;18.52;82.83;99459.95;1642894;85;21805;-55
2022/09/15 13:24:06;;;;;;;12.47;10.53;;;;;;;18.54;82.83;99455.02;1671751;84;21313;-55
2022/09/15 13:27:16;;;;;;;14.95;9.98;;;;;;;18.52;82.76;99459.95;1695172;82;21213;-55
2022/09/15 13:30:35;;;;;;;11.57;9.58;;;;;;;18.48;82.74;99456.02;1710973;83;21747;-55
2022/09/15 13:34:26;;;;;;;15.38;10.50;;;;;;;18.43;82.74;99454.53;1711659;83;22093;-55
2022/09/15 13:38:00;;;;;;;10.32;9.00;;;;;;;18.40;82.77;99456.42;1708051;82;21232;-56
2022/09/15 13:41:41;;;;;;;11.12;9.58;;;;;;;18.36;82.81;99450.20;1682344;85;21745;-57
2022/09/15 13:45:01;;;;;;;14.33;11.48;;;;;;;18.31;82.85;99462.05;1708922;82;22107;-56
2022/09/15 13:48:32;;;;;;;15.93;11.80;;;;;;;18.27;82.90;99457.22;1708510;82;21292;-55
2022/09/15 13:51:40;;;;;;;14.25;12.75;;;;;;;18.22;82.93;99456.58;1704954;83;21618;-57
2022/09/15 13:55:52;;;;;;;14.80;12.82;;;;;;;18.19;82.96;99457.64;1707810;82;21734;-55
2022/09/15 13:59:08;;;;;;;17.92;13.90;;;;;;;18.15;83.04;99453.13;1723460;82;21559;-54
2022/09/15 14:02:15;;;;;;;14.10;11.40;;;;;;;18.11;83.09;99455.27;1733028;83;21190;-54
2022/09/15 14:05:23;;;;;;;13.48;10.53;;;;;;;18.06;83.13;99446.28;1731000;83;21746;-56
2022/09/15 14:08:38;;;;;;;12.45;9.38;;;;;;;18.04;83.18;99451.25;1726777;83;21212;-55
2022/09/15 14:11:43;;;;;;;13.40;10.28;;;;;;;18.02;83.21;99453.42;1709075;84;21260;-55
2022/09/15 14:14:57;;;;;;;13.48;10.15;;;;;;;17.99;83.26;99453.06;1730580;80;21268;-56
2022/09/15 14:18:05;;;;;;;12.23;10.30;;;;;;;17.97;83.32;99456.08;1730460;83;21229;-56
2022/09/15 14:21:12;;;;;;;11.38;9.35;;;;;;;17.95;83.35;99458.25;1731052;82;21197;-56
2022/09/15 14:24:28;;;;;;;12.47;9.88;;;;;;;17.93;83.42;99445.74;1701894;83;21819;-56
2022/09/15 14:27:38;;;;;;;10.38;8.55;;;;;;;17.89;83.43;99446.77;1717778;81;21166;-56
2022/09/15 14:30:45;;;;;;;13.22;10.08;;;;;;;17.83;83.39;99449.14;1747345;82;21200;-58
2022/09/15 14:33:52;;;;;;;11.30;8.35;;;;;;;17.78;83.46;99448.50;1742643;81;21253;-57
2022/09/15 14:37:12;;;;;;;10.75;9.23;;;;;;;17.76;83.52;99444.28;1696199;84;21217;-57
2022/09/15 14:40:31;;;;;;;12.43;9.40;;;;;;;17.75;83.57;99432.91;1713982;81;21219;-55
2022/09/15 14:43:41;;;;;;;13.10;10.35;;;;;;;17.74;83.64;99442.32;1740915;81;21204;-56
2022/09/15 14:46:47;;;;;;;16.45;11.70;;;;;;;17.73;83.67;99446.16;1745090;82;21389;-56
2022/09/15 14:49:53;;;;;;;16.00;12.82;;;;;;;17.71;83.71;99443.63;1745024;82;21208;-56
2022/09/15 14:53:18;;;;;;;16.97;12.65;;;;;;;17.70;83.75;99443.88;1744814;80;21589;-56
2022/09/15 14:56:29;;;;;;;19.05;13.48;;;;;;;17.68;83.81;99434.97;1727823;80;21271;-55
2022/09/15 14:59:43;;;;;;;15.35;12.23;;;;;;;17.66;83.85;99435.22;1728670;81;21204;-55
2022/09/15 15:03:07;;;;;;;14.55;11.43;;;;;;;17.65;83.88;99428.01;1749106;81;21245;-56